Terminal Aerodrome Forecast
Issued by NWS

Home | Current Version | Previous Version | Text Only | Print | Product List | Glossary On
Versions: 1 2 3 4 5 6 7 8 9 10 11 12 13 14 15 16 17 18 19 20 21 22 23 24
000
FTUS43 KLOT 262002 AAA
TAFDPA
TAF AMD
KDPA 262002Z 2620/2718 23008KT P6SM SCT120 BKN250
     FM270800 33010G16KT P6SM BKN120
     FM271300 34007KT P6SM FEW200
     FM271700 28008KT P6SM FEW200=

USA.gov is the U.S. government's official web portal to all federal, state and local government web resources and services.